sensor_id;sensor_type;location;lat;lon;timestamp;P1;durP1;ratioP1;P2;durP2;ratioP2
16179;SDS011;8196;49.428;10.906;2022-08-06T00:00:23;4.43;;;3.77;;
16179;SDS011;8196;49.428;10.906;2022-08-06T00:02:52;4.72;;;4.10;;
16179;SDS011;8196;49.428;10.906;2022-08-06T00:05:20;4.85;;;3.97;;
16179;SDS011;8196;49.428;10.906;2022-08-06T00:07:54;5.00;;;3.67;;
16179;SDS011;8196;49.428;10.906;2022-08-06T00:10:23;6.40;;;4.13;;
16179;SDS011;8196;49.428;10.906;2022-08-06T00:12:55;4.53;;;3.97;;
16179;SDS011;8196;49.428;10.906;2022-08-06T00:15:23;5.45;;;3.45;;
16179;SDS011;8196;49.428;10.906;2022-08-06T00:18:10;5.10;;;3.72;;
16179;SDS011;8196;49.428;10.906;2022-08-06T00:20:38;4.00;;;3.40;;
16179;SDS011;8196;49.428;10.906;2022-08-06T00:23:07;3.60;;;3.30;;
16179;SDS011;8196;49.428;10.906;2022-08-06T00:25:42;3.65;;;3.30;;
16179;SDS011;8196;49.428;10.906;2022-08-06T00:28:17;3.88;;;3.38;;
16179;SDS011;8196;49.428;10.906;2022-08-06T00:30:45;3.75;;;3.38;;
16179;SDS011;8196;49.428;10.906;2022-08-06T00:33:13;3.90;;;3.30;;
16179;SDS011;8196;49.428;10.906;2022-08-06T00:35:41;3.20;;;2.90;;
16179;SDS011;8196;49.428;10.906;2022-08-06T00:38:11;4.03;;;3.22;;
16179;SDS011;8196;49.428;10.906;2022-08-06T00:40:40;4.10;;;3.70;;
16179;SDS011;8196;49.428;10.906;2022-08-06T00:43:23;4.10;;;3.70;;
16179;SDS011;8196;49.428;10.906;2022-08-06T00:45:50;4.25;;;3.47;;
16179;SDS011;8196;49.428;10.906;2022-08-06T00:48:21;4.50;;;4.10;;
16179;SDS011;8196;49.428;10.906;2022-08-06T00:51:08;5.55;;;4.18;;
16179;SDS011;8196;49.428;10.906;2022-08-06T00:53:43;4.25;;;3.90;;
16179;SDS011;8196;49.428;10.906;2022-08-06T00:56:13;5.88;;;4.13;;
16179;SDS011;8196;49.428;10.906;2022-08-06T00:58:40;4.20;;;3.80;;
16179;SDS011;8196;49.428;10.906;2022-08-06T01:01:09;5.38;;;3.75;;
16179;SDS011;8196;49.428;10.906;2022-08-06T01:03:43;3.75;;;3.40;;
16179;SDS011;8196;49.428;10.906;2022-08-06T01:09:04;4.65;;;3.60;;
16179;SDS011;8196;49.428;10.906;2022-08-06T01:11:32;4.22;;;3.83;;
16179;SDS011;8196;49.428;10.906;2022-08-06T01:14:01;4.55;;;4.15;;
16179;SDS011;8196;49.428;10.906;2022-08-06T01:16:51;4.78;;;4.15;;
16179;SDS011;8196;49.428;10.906;2022-08-06T01:27:48;5.38;;;4.00;;
16179;SDS011;8196;49.428;10.906;2022-08-06T01:30:22;4.15;;;3.75;;
16179;SDS011;8196;49.428;10.906;2022-08-06T01:32:54;5.13;;;4.18;;
16179;SDS011;8196;49.428;10.906;2022-08-06T01:38:15;4.13;;;3.50;;
16179;SDS011;8196;49.428;10.906;2022-08-06T01:40:43;5.07;;;4.15;;
16179;SDS011;8196;49.428;10.906;2022-08-06T01:43:17;3.25;;;3.05;;
16179;SDS011;8196;49.428;10.906;2022-08-06T01:46:06;4.00;;;3.47;;
16179;SDS011;8196;49.428;10.906;2022-08-06T01:48:36;3.83;;;3.33;;
16179;SDS011;8196;49.428;10.906;2022-08-06T01:51:04;3.20;;;2.90;;
16179;SDS011;8196;49.428;10.906;2022-08-06T01:53:53;3.65;;;3.35;;
16179;SDS011;8196;49.428;10.906;2022-08-06T01:56:34;4.38;;;3.75;;
16179;SDS011;8196;49.428;10.906;2022-08-06T01:59:23;3.53;;;3.22;;
16179;SDS011;8196;49.428;10.906;2022-08-06T02:01:51;3.10;;;2.80;;
16179;SDS011;8196;49.428;10.906;2022-08-06T02:04:21;3.40;;;3.20;;
16179;SDS011;8196;49.428;10.906;2022-08-06T02:06:49;3.33;;;3.03;;
16179;SDS011;8196;49.428;10.906;2022-08-06T02:09:18;4.82;;;3.63;;
16179;SDS011;8196;49.428;10.906;2022-08-06T02:11:56;3.05;;;2.85;;
16179;SDS011;8196;49.428;10.906;2022-08-06T02:14:32;3.53;;;3.22;;
16179;SDS011;8196;49.428;10.906;2022-08-06T02:17:01;2.70;;;2.50;;
16179;SDS011;8196;49.428;10.906;2022-08-06T02:19:43;2.90;;;2.70;;
16179;SDS011;8196;49.428;10.906;2022-08-06T02:22:31;2.80;;;2.60;;
16179;SDS011;8196;49.428;10.906;2022-08-06T02:25:01;4.00;;;3.70;;
16179;SDS011;8196;49.428;10.906;2022-08-06T02:27:41;3.35;;;3.08;;
16179;SDS011;8196;49.428;10.906;2022-08-06T02:30:23;3.88;;;3.58;;
16179;SDS011;8196;49.428;10.906;2022-08-06T02:32:56;4.00;;;3.60;;
16179;SDS011;8196;49.428;10.906;2022-08-06T02:35:28;5.18;;;3.53;;
16179;SDS011;8196;49.428;10.906;2022-08-06T02:38:03;4.00;;;3.70;;
16179;SDS011;8196;49.428;10.906;2022-08-06T02:40:36;3.47;;;3.17;;
16179;SDS011;8196;49.428;10.906;2022-08-06T02:43:08;3.38;;;3.17;;
16179;SDS011;8196;49.428;10.906;2022-08-06T02:45:55;3.42;;;3.13;;
16179;SDS011;8196;49.428;10.906;2022-08-06T02:48:30;3.50;;;3.25;;
16179;SDS011;8196;49.428;10.906;2022-08-06T02:50:59;3.90;;;3.50;;
16179;SDS011;8196;49.428;10.906;2022-08-06T02:53:48;4.28;;;3.88;;
16179;SDS011;8196;49.428;10.906;2022-08-06T02:56:30;3.70;;;3.40;;
16179;SDS011;8196;49.428;10.906;2022-08-06T02:59:08;3.72;;;3.42;;
16179;SDS011;8196;49.428;10.906;2022-08-06T03:01:37;3.67;;;3.38;;
16179;SDS011;8196;49.428;10.906;2022-08-06T03:04:09;3.75;;;3.45;;
16179;SDS011;8196;49.428;10.906;2022-08-06T03:06:37;6.05;;;4.15;;
16179;SDS011;8196;49.428;10.906;2022-08-06T03:09:09;3.83;;;3.53;;
16179;SDS011;8196;49.428;10.906;2022-08-06T03:11:41;6.53;;;4.35;;
16179;SDS011;8196;49.428;10.906;2022-08-06T03:14:12;3.88;;;3.58;;
16179;SDS011;8196;49.428;10.906;2022-08-06T03:17:01;3.50;;;3.20;;
16179;SDS011;8196;49.428;10.906;2022-08-06T03:19:28;2.80;;;2.60;;
16179;SDS011;8196;49.428;10.906;2022-08-06T03:22:17;3.92;;;3.63;;
16179;SDS011;8196;49.428;10.906;2022-08-06T03:25:05;6.20;;;4.00;;
16179;SDS011;8196;49.428;10.906;2022-08-06T03:27:34;4.20;;;3.80;;
16179;SDS011;8196;49.428;10.906;2022-08-06T03:30:11;3.40;;;3.10;;
16179;SDS011;8196;49.428;10.906;2022-08-06T03:33:01;3.08;;;2.78;;
16179;SDS011;8196;49.428;10.906;2022-08-06T03:35:49;3.93;;;3.63;;
16179;SDS011;8196;49.428;10.906;2022-08-06T03:38:19;5.60;;;4.40;;
16179;SDS011;8196;49.428;10.906;2022-08-06T03:40:53;4.67;;;4.23;;
16179;SDS011;8196;49.428;10.906;2022-08-06T03:43:21;4.38;;;3.97;;
16179;SDS011;8196;49.428;10.906;2022-08-06T03:45:55;4.72;;;4.25;;
16179;SDS011;8196;49.428;10.906;2022-08-06T03:48:24;4.70;;;4.30;;
16179;SDS011;8196;49.428;10.906;2022-08-06T03:51:02;4.93;;;4.43;;
16179;SDS011;8196;49.428;10.906;2022-08-06T03:53:35;4.50;;;3.83;;
16179;SDS011;8196;49.428;10.906;2022-08-06T03:56:04;4.60;;;4.15;;
16179;SDS011;8196;49.428;10.906;2022-08-06T03:58:39;4.88;;;4.47;;
16179;SDS011;8196;49.428;10.906;2022-08-06T04:01:09;5.05;;;4.50;;
16179;SDS011;8196;49.428;10.906;2022-08-06T04:03:37;3.65;;;3.28;;
16179;SDS011;8196;49.428;10.906;2022-08-06T04:06:06;5.20;;;4.70;;
16179;SDS011;8196;49.428;10.906;2022-08-06T04:08:45;5.20;;;4.70;;
16179;SDS011;8196;49.428;10.906;2022-08-06T04:11:13;6.78;;;5.05;;
16179;SDS011;8196;49.428;10.906;2022-08-06T04:14:00;5.45;;;4.95;;
16179;SDS011;8196;49.428;10.906;2022-08-06T04:16:33;5.15;;;4.68;;
16179;SDS011;8196;49.428;10.906;2022-08-06T04:19:03;5.00;;;4.47;;
16179;SDS011;8196;49.428;10.906;2022-08-06T04:21:37;6.00;;;5.13;;
16179;SDS011;8196;49.428;10.906;2022-08-06T04:24:25;6.13;;;5.53;;
16179;SDS011;8196;49.428;10.906;2022-08-06T04:26:57;5.50;;;5.00;;
16179;SDS011;8196;49.428;10.906;2022-08-06T04:29:25;5.40;;;4.90;;
16179;SDS011;8196;49.428;10.906;2022-08-06T04:32:13;5.78;;;5.10;;
16179;SDS011;8196;49.428;10.906;2022-08-06T04:34:54;7.05;;;5.15;;
16179;SDS011;8196;49.428;10.906;2022-08-06T04:37:42;4.57;;;4.18;;
16179;SDS011;8196;49.428;10.906;2022-08-06T04:40:16;5.27;;;4.77;;
16179;SDS011;8196;49.428;10.906;2022-08-06T04:43:00;4.78;;;4.30;;
16179;SDS011;8196;49.428;10.906;2022-08-06T04:45:27;5.53;;;4.30;;
16179;SDS011;8196;49.428;10.906;2022-08-06T04:48:15;5.40;;;4.90;;
16179;SDS011;8196;49.428;10.906;2022-08-06T04:50:46;5.90;;;4.95;;
16179;SDS011;8196;49.428;10.906;2022-08-06T04:53:19;5.18;;;4.40;;
16179;SDS011;8196;49.428;10.906;2022-08-06T04:56:07;7.15;;;5.75;;
16179;SDS011;8196;49.428;10.906;2022-08-06T04:58:40;5.18;;;4.65;;
16179;SDS011;8196;49.428;10.906;2022-08-06T05:01:08;6.00;;;5.38;;
16179;SDS011;8196;49.428;10.906;2022-08-06T05:03:37;5.28;;;4.88;;
16179;SDS011;8196;49.428;10.906;2022-08-06T05:06:25;5.57;;;5.07;;
16179;SDS011;8196;49.428;10.906;2022-08-06T05:08:58;5.32;;;4.82;;
16179;SDS011;8196;49.428;10.906;2022-08-06T05:11:31;4.60;;;4.20;;
16179;SDS011;8196;49.428;10.906;2022-08-06T05:14:22;5.20;;;4.70;;
16179;SDS011;8196;49.428;10.906;2022-08-06T05:16:54;5.53;;;4.80;;
16179;SDS011;8196;49.428;10.906;2022-08-06T05:19:26;4.72;;;4.32;;
16179;SDS011;8196;49.428;10.906;2022-08-06T05:21:55;5.90;;;5.00;;
16179;SDS011;8196;49.428;10.906;2022-08-06T05:24:37;4.38;;;3.97;;
16179;SDS011;8196;49.428;10.906;2022-08-06T05:27:25;4.35;;;3.95;;
16179;SDS011;8196;49.428;10.906;2022-08-06T05:30:12;4.20;;;3.80;;
16179;SDS011;8196;49.428;10.906;2022-08-06T05:32:40;3.90;;;3.58;;
16179;SDS011;8196;49.428;10.906;2022-08-06T05:35:10;2.90;;;2.70;;
16179;SDS011;8196;49.428;10.906;2022-08-06T05:37:43;3.05;;;2.67;;
16179;SDS011;8196;49.428;10.906;2022-08-06T05:40:28;3.25;;;2.85;;
16179;SDS011;8196;49.428;10.906;2022-08-06T05:43:19;2.70;;;2.50;;
16179;SDS011;8196;49.428;10.906;2022-08-06T05:45:48;5.00;;;2.53;;
16179;SDS011;8196;49.428;10.906;2022-08-06T05:48:17;2.78;;;2.58;;
16179;SDS011;8196;49.428;10.906;2022-08-06T05:50:57;3.10;;;2.72;;
16179;SDS011;8196;49.428;10.906;2022-08-06T05:53:35;2.72;;;2.10;;
16179;SDS011;8196;49.428;10.906;2022-08-06T05:56:29;2.60;;;2.40;;
16179;SDS011;8196;49.428;10.906;2022-08-06T05:59:06;2.58;;;2.38;;
16179;SDS011;8196;49.428;10.906;2022-08-06T06:01:53;2.25;;;1.92;;
16179;SDS011;8196;49.428;10.906;2022-08-06T06:04:21;2.50;;;2.03;;
16179;SDS011;8196;49.428;10.906;2022-08-06T06:06:59;2.38;;;1.90;;
16179;SDS011;8196;49.428;10.906;2022-08-06T06:09:30;2.63;;;2.10;;
16179;SDS011;8196;49.428;10.906;2022-08-06T06:12:17;4.65;;;2.65;;
16179;SDS011;8196;49.428;10.906;2022-08-06T06:14:46;2.67;;;2.47;;
16179;SDS011;8196;49.428;10.906;2022-08-06T06:22:19;2.27;;;1.80;;
16179;SDS011;8196;49.428;10.906;2022-08-06T06:25:02;1.67;;;1.55;;
16179;SDS011;8196;49.428;10.906;2022-08-06T06:27:42;2.40;;;1.70;;
16179;SDS011;8196;49.428;10.906;2022-08-06T06:30:15;2.70;;;1.83;;
16179;SDS011;8196;49.428;10.906;2022-08-06T06:41:10;2.20;;;1.92;;
16179;SDS011;8196;49.428;10.906;2022-08-06T06:52:24;2.72;;;1.52;;
16179;SDS011;8196;49.428;10.906;2022-08-06T06:57:43;2.35;;;1.50;;
16179;SDS011;8196;49.428;10.906;2022-08-06T07:00:11;2.55;;;1.60;;
16179;SDS011;8196;49.428;10.906;2022-08-06T07:02:59;2.10;;;1.50;;
16179;SDS011;8196;49.428;10.906;2022-08-06T07:05:28;1.97;;;1.40;;
16179;SDS011;8196;49.428;10.906;2022-08-06T07:08:17;2.47;;;1.40;;
16179;SDS011;8196;49.428;10.906;2022-08-06T07:10:57;2.20;;;1.50;;
16179;SDS011;8196;49.428;10.906;2022-08-06T07:13:25;3.45;;;1.60;;
16179;SDS011;8196;49.428;10.906;2022-08-06T07:16:13;1.40;;;1.17;;
16179;SDS011;8196;49.428;10.906;2022-08-06T07:19:00;2.85;;;1.30;;
16179;SDS011;8196;49.428;10.906;2022-08-06T07:21:29;2.65;;;1.23;;
16179;SDS011;8196;49.428;10.906;2022-08-06T07:23:56;1.83;;;1.10;;
16179;SDS011;8196;49.428;10.906;2022-08-06T07:26:45;1.77;;;1.48;;
16179;SDS011;8196;49.428;10.906;2022-08-06T07:29:17;1.30;;;1.00;;
16179;SDS011;8196;49.428;10.906;2022-08-06T07:32:07;1.90;;;1.10;;
16179;SDS011;8196;49.428;10.906;2022-08-06T07:34:54;2.22;;;1.25;;
16179;SDS011;8196;49.428;10.906;2022-08-06T07:37:21;3.55;;;1.23;;
16179;SDS011;8196;49.428;10.906;2022-08-06T07:39:51;2.13;;;1.00;;
16179;SDS011;8196;49.428;10.906;2022-08-06T07:42:20;2.08;;;1.15;;
16179;SDS011;8196;49.428;10.906;2022-08-06T07:44:51;1.20;;;1.08;;
16179;SDS011;8196;49.428;10.906;2022-08-06T07:47:33;2.50;;;0.90;;
16179;SDS011;8196;49.428;10.906;2022-08-06T07:50:21;2.63;;;1.00;;
16179;SDS011;8196;49.428;10.906;2022-08-06T07:52:50;2.45;;;0.90;;
16179;SDS011;8196;49.428;10.906;2022-08-06T07:55:20;1.63;;;0.90;;
16179;SDS011;8196;49.428;10.906;2022-08-06T07:57:52;1.35;;;1.10;;
16179;SDS011;8196;49.428;10.906;2022-08-06T08:00:24;1.80;;;0.83;;
16179;SDS011;8196;49.428;10.906;2022-08-06T08:02:54;1.38;;;0.90;;
16179;SDS011;8196;49.428;10.906;2022-08-06T08:06:02;1.23;;;0.85;;
16179;SDS011;8196;49.428;10.906;2022-08-06T08:08:48;2.85;;;1.02;;
16179;SDS011;8196;49.428;10.906;2022-08-06T08:11:16;1.33;;;0.80;;
16179;SDS011;8196;49.428;10.906;2022-08-06T08:14:02;1.58;;;0.80;;
16179;SDS011;8196;49.428;10.906;2022-08-06T08:16:32;0.80;;;0.70;;
16179;SDS011;8196;49.428;10.906;2022-08-06T08:21:50;0.77;;;0.70;;
16179;SDS011;8196;49.428;10.906;2022-08-06T08:24:17;1.30;;;0.90;;
16179;SDS011;8196;49.428;10.906;2022-08-06T08:26:45;3.97;;;1.63;;
16179;SDS011;8196;49.428;10.906;2022-08-06T08:29:30;0.80;;;0.73;;
16179;SDS011;8196;49.428;10.906;2022-08-06T08:32:00;1.83;;;0.80;;
16179;SDS011;8196;49.428;10.906;2022-08-06T08:34:40;3.08;;;1.50;;
16179;SDS011;8196;49.428;10.906;2022-08-06T08:37:09;2.28;;;0.90;;
16179;SDS011;8196;49.428;10.906;2022-08-06T08:39:43;1.52;;;0.70;;
16179;SDS011;8196;49.428;10.906;2022-08-06T08:42:14;1.37;;;0.97;;
16179;SDS011;8196;49.428;10.906;2022-08-06T08:44:57;1.23;;;0.82;;
16179;SDS011;8196;49.428;10.906;2022-08-06T08:47:25;1.90;;;1.00;;
16179;SDS011;8196;49.428;10.906;2022-08-06T08:50:11;1.30;;;1.00;;
16179;SDS011;8196;49.428;10.906;2022-08-06T08:52:43;2.10;;;0.93;;
16179;SDS011;8196;49.428;10.906;2022-08-06T08:55:13;1.30;;;0.80;;
16179;SDS011;8196;49.428;10.906;2022-08-06T08:58:02;1.65;;;0.90;;
16179;SDS011;8196;49.428;10.906;2022-08-06T09:00:49;1.88;;;0.88;;
16179;SDS011;8196;49.428;10.906;2022-08-06T09:03:19;1.80;;;0.90;;
16179;SDS011;8196;49.428;10.906;2022-08-06T09:05:48;1.60;;;0.80;;
16179;SDS011;8196;49.428;10.906;2022-08-06T09:08:18;1.50;;;0.83;;
16179;SDS011;8196;49.428;10.906;2022-08-06T09:11:05;1.88;;;0.80;;
16179;SDS011;8196;49.428;10.906;2022-08-06T09:13:52;2.20;;;0.82;;
16179;SDS011;8196;49.428;10.906;2022-08-06T09:16:26;2.88;;;1.20;;
16179;SDS011;8196;49.428;10.906;2022-08-06T09:18:58;2.25;;;0.90;;
16179;SDS011;8196;49.428;10.906;2022-08-06T09:21:25;0.80;;;0.80;;
16179;SDS011;8196;49.428;10.906;2022-08-06T09:23:54;2.07;;;1.00;;
16179;SDS011;8196;49.428;10.906;2022-08-06T09:26:24;1.17;;;0.80;;
16179;SDS011;8196;49.428;10.906;2022-08-06T09:29:26;2.00;;;0.88;;
16179;SDS011;8196;49.428;10.906;2022-08-06T09:32:01;1.52;;;0.90;;
16179;SDS011;8196;49.428;10.906;2022-08-06T09:34:41;2.05;;;0.95;;
16179;SDS011;8196;49.428;10.906;2022-08-06T09:37:15;1.85;;;1.10;;
16179;SDS011;8196;49.428;10.906;2022-08-06T09:40:11;1.03;;;0.90;;
16179;SDS011;8196;49.428;10.906;2022-08-06T09:42:44;1.80;;;0.80;;
16179;SDS011;8196;49.428;10.906;2022-08-06T09:45:14;2.50;;;1.00;;
16179;SDS011;8196;49.428;10.906;2022-08-06T09:47:44;0.85;;;0.75;;
16179;SDS011;8196;49.428;10.906;2022-08-06T09:53:12;1.33;;;0.90;;
16179;SDS011;8196;49.428;10.906;2022-08-06T09:55:46;1.80;;;0.80;;
16179;SDS011;8196;49.428;10.906;2022-08-06T09:58:13;2.85;;;1.15;;
16179;SDS011;8196;49.428;10.906;2022-08-06T10:00:43;1.40;;;1.30;;
16179;SDS011;8196;49.428;10.906;2022-08-06T10:03:16;1.92;;;1.00;;
16179;SDS011;8196;49.428;10.906;2022-08-06T10:06:05;1.20;;;0.70;;
16179;SDS011;8196;49.428;10.906;2022-08-06T10:08:36;2.45;;;1.08;;
16179;SDS011;8196;49.428;10.906;2022-08-06T10:11:04;1.58;;;1.00;;
16179;SDS011;8196;49.428;10.906;2022-08-06T10:13:33;1.52;;;0.90;;
16179;SDS011;8196;49.428;10.906;2022-08-06T10:16:15;1.35;;;0.90;;
16179;SDS011;8196;49.428;10.906;2022-08-06T10:18:45;1.90;;;0.93;;
16179;SDS011;8196;49.428;10.906;2022-08-06T10:21:25;1.40;;;0.80;;
16179;SDS011;8196;49.428;10.906;2022-08-06T10:24:07;2.83;;;0.90;;
16179;SDS011;8196;49.428;10.906;2022-08-06T10:26:35;1.88;;;0.90;;
16179;SDS011;8196;49.428;10.906;2022-08-06T10:29:03;1.57;;;0.93;;
16179;SDS011;8196;49.428;10.906;2022-08-06T10:31:32;2.00;;;1.10;;
16179;SDS011;8196;49.428;10.906;2022-08-06T10:34:06;2.20;;;0.85;;
16179;SDS011;8196;49.428;10.906;2022-08-06T10:36:36;1.53;;;1.23;;
16179;SDS011;8196;49.428;10.906;2022-08-06T10:39:05;2.03;;;1.73;;
16179;SDS011;8196;49.428;10.906;2022-08-06T10:41:53;1.10;;;0.90;;
16179;SDS011;8196;49.428;10.906;2022-08-06T10:44:29;1.38;;;0.80;;
16179;SDS011;8196;49.428;10.906;2022-08-06T10:47:03;1.33;;;0.90;;
16179;SDS011;8196;49.428;10.906;2022-08-06T10:49:32;2.03;;;0.85;;
16179;SDS011;8196;49.428;10.906;2022-08-06T10:52:19;1.65;;;0.88;;
16179;SDS011;8196;49.428;10.906;2022-08-06T10:54:50;1.75;;;0.90;;
16179;SDS011;8196;49.428;10.906;2022-08-06T10:57:17;1.00;;;0.80;;
16179;SDS011;8196;49.428;10.906;2022-08-06T11:00:02;1.45;;;0.90;;
16179;SDS011;8196;49.428;10.906;2022-08-06T11:05:23;2.03;;;1.30;;
16179;SDS011;8196;49.428;10.906;2022-08-06T11:10:41;2.03;;;0.88;;
16179;SDS011;8196;49.428;10.906;2022-08-06T11:16:24;1.33;;;1.10;;
16179;SDS011;8196;49.428;10.906;2022-08-06T11:18:58;0.80;;;0.80;;
16179;SDS011;8196;49.428;10.906;2022-08-06T11:21:36;0.93;;;0.90;;
16179;SDS011;8196;49.428;10.906;2022-08-06T11:24:24;1.15;;;1.00;;
16179;SDS011;8196;49.428;10.906;2022-08-06T11:26:51;1.83;;;1.00;;
16179;SDS011;8196;49.428;10.906;2022-08-06T11:29:50;1.50;;;1.10;;
16179;SDS011;8196;49.428;10.906;2022-08-06T11:38:12;1.02;;;0.80;;
16179;SDS011;8196;49.428;10.906;2022-08-06T11:40:53;1.88;;;1.05;;
16179;SDS011;8196;49.428;10.906;2022-08-06T11:46:36;1.40;;;1.00;;
16179;SDS011;8196;49.428;10.906;2022-08-06T11:51:49;2.00;;;1.00;;
16179;SDS011;8196;49.428;10.906;2022-08-06T11:59:29;1.15;;;0.93;;
16179;SDS011;8196;49.428;10.906;2022-08-06T12:02:04;1.15;;;0.90;;
16179;SDS011;8196;49.428;10.906;2022-08-06T12:10:02;1.27;;;0.90;;
16179;SDS011;8196;49.428;10.906;2022-08-06T12:12:34;1.10;;;1.00;;
16179;SDS011;8196;49.428;10.906;2022-08-06T12:18:06;2.30;;;1.05;;
16179;SDS011;8196;49.428;10.906;2022-08-06T12:20:46;1.35;;;1.00;;
16179;SDS011;8196;49.428;10.906;2022-08-06T12:23:21;2.17;;;1.20;;
16179;SDS011;8196;49.428;10.906;2022-08-06T12:26:09;1.70;;;1.25;;
16179;SDS011;8196;49.428;10.906;2022-08-06T12:28:36;1.43;;;0.87;;
16179;SDS011;8196;49.428;10.906;2022-08-06T12:31:04;0.98;;;0.88;;
16179;SDS011;8196;49.428;10.906;2022-08-06T12:33:51;1.20;;;1.00;;
16179;SDS011;8196;49.428;10.906;2022-08-06T12:36:18;0.98;;;0.93;;
16179;SDS011;8196;49.428;10.906;2022-08-06T12:39:01;1.23;;;1.00;;
16179;SDS011;8196;49.428;10.906;2022-08-06T12:41:34;1.45;;;0.80;;
16179;SDS011;8196;49.428;10.906;2022-08-06T12:44:12;1.65;;;1.00;;
16179;SDS011;8196;49.428;10.906;2022-08-06T12:46:53;1.30;;;1.20;;
16179;SDS011;8196;49.428;10.906;2022-08-06T12:49:36;1.10;;;1.00;;
16179;SDS011;8196;49.428;10.906;2022-08-06T12:52:12;1.43;;;0.90;;
16179;SDS011;8196;49.428;10.906;2022-08-06T12:54:40;1.50;;;1.00;;
16179;SDS011;8196;49.428;10.906;2022-08-06T12:57:07;0.90;;;0.87;;
16179;SDS011;8196;49.428;10.906;2022-08-06T12:59:34;1.65;;;1.00;;
16179;SDS011;8196;49.428;10.906;2022-08-06T13:02:10;0.85;;;0.82;;
16179;SDS011;8196;49.428;10.906;2022-08-06T13:04:52;1.17;;;0.98;;
16179;SDS011;8196;49.428;10.906;2022-08-06T13:07:20;2.67;;;1.00;;
16179;SDS011;8196;49.428;10.906;2022-08-06T13:09:49;1.05;;;1.00;;
16179;SDS011;8196;49.428;10.906;2022-08-06T13:12:36;1.08;;;1.00;;
16179;SDS011;8196;49.428;10.906;2022-08-06T13:15:24;2.30;;;1.00;;
16179;SDS011;8196;49.428;10.906;2022-08-06T13:18:12;1.20;;;1.00;;
16179;SDS011;8196;49.428;10.906;2022-08-06T13:21:00;1.00;;;1.00;;
16179;SDS011;8196;49.428;10.906;2022-08-06T13:23:36;1.30;;;1.00;;
16179;SDS011;8196;49.428;10.906;2022-08-06T13:26:12;2.72;;;1.20;;
16179;SDS011;8196;49.428;10.906;2022-08-06T13:29:10;1.05;;;0.95;;
16179;SDS011;8196;49.428;10.906;2022-08-06T13:31:58;1.60;;;1.10;;
16179;SDS011;8196;49.428;10.906;2022-08-06T13:34:27;1.50;;;0.90;;
16179;SDS011;8196;49.428;10.906;2022-08-06T13:36:56;1.25;;;1.00;;
16179;SDS011;8196;49.428;10.906;2022-08-06T13:39:27;1.10;;;0.90;;
16179;SDS011;8196;49.428;10.906;2022-08-06T13:42:00;1.13;;;0.90;;
16179;SDS011;8196;49.428;10.906;2022-08-06T13:44:40;1.60;;;1.00;;
16179;SDS011;8196;49.428;10.906;2022-08-06T13:47:09;1.33;;;0.90;;
16179;SDS011;8196;49.428;10.906;2022-08-06T13:49:59;0.98;;;0.88;;
16179;SDS011;8196;49.428;10.906;2022-08-06T13:52:29;2.70;;;1.40;;
16179;SDS011;8196;49.428;10.906;2022-08-06T13:54:56;1.00;;;1.00;;
16179;SDS011;8196;49.428;10.906;2022-08-06T13:57:23;1.67;;;1.20;;
16179;SDS011;8196;49.428;10.906;2022-08-06T13:59:51;1.20;;;1.00;;
16179;SDS011;8196;49.428;10.906;2022-08-06T14:02:21;1.05;;;0.90;;
16179;SDS011;8196;49.428;10.906;2022-08-06T14:04:48;0.90;;;0.90;;
16179;SDS011;8196;49.428;10.906;2022-08-06T14:07:16;1.85;;;0.90;;
16179;SDS011;8196;49.428;10.906;2022-08-06T14:09:43;1.20;;;1.05;;
16179;SDS011;8196;49.428;10.906;2022-08-06T14:12:30;2.60;;;1.02;;
16179;SDS011;8196;49.428;10.906;2022-08-06T14:14:58;0.90;;;0.90;;
16179;SDS011;8196;49.428;10.906;2022-08-06T14:17:25;0.90;;;0.90;;
16179;SDS011;8196;49.428;10.906;2022-08-06T14:20:00;1.08;;;0.95;;
16179;SDS011;8196;49.428;10.906;2022-08-06T14:22:44;1.73;;;1.00;;
16179;SDS011;8196;49.428;10.906;2022-08-06T14:25:14;1.50;;;1.00;;
16179;SDS011;8196;49.428;10.906;2022-08-06T14:27:41;1.90;;;1.00;;
16179;SDS011;8196;49.428;10.906;2022-08-06T14:30:11;0.88;;;0.88;;
16179;SDS011;8196;49.428;10.906;2022-08-06T14:32:58;1.02;;;1.00;;
16179;SDS011;8196;49.428;10.906;2022-08-06T14:35:36;1.10;;;0.93;;
16179;SDS011;8196;49.428;10.906;2022-08-06T14:38:16;0.90;;;0.90;;
16179;SDS011;8196;49.428;10.906;2022-08-06T14:40:43;0.90;;;0.90;;
16179;SDS011;8196;49.428;10.906;2022-08-06T14:43:35;1.37;;;1.10;;
16179;SDS011;8196;49.428;10.906;2022-08-06T14:46:24;1.30;;;0.90;;
16179;SDS011;8196;49.428;10.906;2022-08-06T14:48:55;0.93;;;0.93;;
16179;SDS011;8196;49.428;10.906;2022-08-06T14:51:25;2.58;;;1.00;;
16179;SDS011;8196;49.428;10.906;2022-08-06T14:54:13;0.98;;;0.90;;
16179;SDS011;8196;49.428;10.906;2022-08-06T14:56:41;1.00;;;1.00;;
16179;SDS011;8196;49.428;10.906;2022-08-06T14:59:17;1.20;;;1.10;;
16179;SDS011;8196;49.428;10.906;2022-08-06T15:01:45;1.30;;;1.20;;
16179;SDS011;8196;49.428;10.906;2022-08-06T15:04:15;1.05;;;0.90;;
16179;SDS011;8196;49.428;10.906;2022-08-06T15:06:50;0.98;;;0.90;;
16179;SDS011;8196;49.428;10.906;2022-08-06T15:09:22;3.00;;;1.00;;
16179;SDS011;8196;49.428;10.906;2022-08-06T15:12:10;0.80;;;0.80;;
16179;SDS011;8196;49.428;10.906;2022-08-06T15:14:39;1.10;;;1.00;;
16179;SDS011;8196;49.428;10.906;2022-08-06T15:17:16;1.45;;;0.88;;
16179;SDS011;8196;49.428;10.906;2022-08-06T15:20:03;0.77;;;0.77;;
16179;SDS011;8196;49.428;10.906;2022-08-06T15:22:34;1.55;;;1.00;;
16179;SDS011;8196;49.428;10.906;2022-08-06T15:25:04;1.02;;;0.98;;
16179;SDS011;8196;49.428;10.906;2022-08-06T15:27:47;3.15;;;1.10;;
16179;SDS011;8196;49.428;10.906;2022-08-06T15:30:15;1.25;;;1.00;;
16179;SDS011;8196;49.428;10.906;2022-08-06T15:32:44;1.20;;;1.00;;
16179;SDS011;8196;49.428;10.906;2022-08-06T15:35:22;2.50;;;1.10;;
16179;SDS011;8196;49.428;10.906;2022-08-06T15:38:09;0.90;;;0.90;;
16179;SDS011;8196;49.428;10.906;2022-08-06T15:40:41;2.50;;;1.10;;
16179;SDS011;8196;49.428;10.906;2022-08-06T15:43:09;1.63;;;1.50;;
16179;SDS011;8196;49.428;10.906;2022-08-06T15:45:39;1.80;;;1.70;;
16179;SDS011;8196;49.428;10.906;2022-08-06T15:48:16;1.20;;;1.10;;
16179;SDS011;8196;49.428;10.906;2022-08-06T15:50:56;1.70;;;0.88;;
16179;SDS011;8196;49.428;10.906;2022-08-06T15:53:44;1.00;;;0.85;;
16179;SDS011;8196;49.428;10.906;2022-08-06T15:56:23;1.52;;;0.80;;
16179;SDS011;8196;49.428;10.906;2022-08-06T15:59:00;0.93;;;0.90;;
16179;SDS011;8196;49.428;10.906;2022-08-06T16:01:31;1.00;;;0.90;;
16179;SDS011;8196;49.428;10.906;2022-08-06T16:04:20;2.03;;;1.00;;
16179;SDS011;8196;49.428;10.906;2022-08-06T16:06:48;0.93;;;0.90;;
16179;SDS011;8196;49.428;10.906;2022-08-06T16:09:16;0.90;;;0.90;;
16179;SDS011;8196;49.428;10.906;2022-08-06T16:11:54;0.80;;;0.80;;
16179;SDS011;8196;49.428;10.906;2022-08-06T16:14:22;1.10;;;0.80;;
16179;SDS011;8196;49.428;10.906;2022-08-06T16:17:02;1.90;;;0.90;;
16179;SDS011;8196;49.428;10.906;2022-08-06T16:19:34;2.08;;;0.95;;
16179;SDS011;8196;49.428;10.906;2022-08-06T16:22:15;0.88;;;0.80;;
16179;SDS011;8196;49.428;10.906;2022-08-06T16:24:43;1.93;;;1.50;;
16179;SDS011;8196;49.428;10.906;2022-08-06T16:27:10;2.10;;;1.03;;
16179;SDS011;8196;49.428;10.906;2022-08-06T16:29:43;1.10;;;0.90;;
16179;SDS011;8196;49.428;10.906;2022-08-06T16:32:14;0.80;;;0.80;;
16179;SDS011;8196;49.428;10.906;2022-08-06T16:34:51;0.80;;;0.80;;
16179;SDS011;8196;49.428;10.906;2022-08-06T16:37:24;0.90;;;0.88;;
16179;SDS011;8196;49.428;10.906;2022-08-06T16:40:04;0.95;;;0.80;;
16179;SDS011;8196;49.428;10.906;2022-08-06T16:42:34;1.80;;;0.70;;
16179;SDS011;8196;49.428;10.906;2022-08-06T16:45:01;0.93;;;0.80;;
16179;SDS011;8196;49.428;10.906;2022-08-06T16:47:37;2.10;;;1.30;;
16179;SDS011;8196;49.428;10.906;2022-08-06T16:50:24;1.42;;;0.80;;
16179;SDS011;8196;49.428;10.906;2022-08-06T16:53:04;0.90;;;0.70;;
16179;SDS011;8196;49.428;10.906;2022-08-06T16:55:51;1.00;;;0.70;;